KMI-030磁力链 狼人综合干练 狼人综合88

青春!ブルマー 3 みはる
尿比重1.030严重吗2018年5月16日 -  09/08/2017 KUSR-030 2.88GB 2 10/05/2018 kusr-047 5.31GB 4 08KMI-023 66.DVAJ-157 67.ACDV-1021 68.DRO-005 69.AUKG-102 70.UMSO-
KMI最佳答案: 我儿子一直在学 已经两年了 之前我也是听朋友说好多,就学了,交了年费 ,长期看对孩子动手、动脑和好习惯的养成很有帮助。我儿子原来独立性差,不爱思考更多关于KMI-030的问题>>
尿比重1.030KMI-W030,调色白 KMI-W050,高不透明白 KMI-THIN,稀释剂 KMI-OPVC,表面光油 KMI-MIXC,调色光油 助剂 UVA-001
001030我们的回收内容如下;A、大量收购厂家库存和电子元件,以及个人积压电子料,各种手机IC,字库、CPU、电池。
ac030KMI-L030,调色黑 KMI-W030,调色白 KMI-W050,高不透明白 KMI-THIN,稀释剂 KMI-OPVC,表面光油 KMI-MIXC,调色
2018年12月21日 -  LENORD+BAUER 编码器 GEL2443KMIG5K030 LENORD+BAUER 编码器 GEL2442KN1R3K600-E LENORD+BAUER 编码器 GEL208-V-00025F041S LENORD+BAUER 编码器 GEL
色墨,稀释剂,光油KMI-R020,蓝色KMI-V300,紫色KMI-M350,品红色KMI-L010,超黑KMI-L020,不透明黑KMI-L030
JB-027,JB-030,JUFD-340,KMI-002,KMI-010,KMI-046,RSP-002,RSP-003@_Q_6_3.76.00.97.wmv,文件大小:,迅雷
2018年12月29日 - KMI / RJFM 天气 (KMI / RJFM 更多天气信息) RJFM 290700Z 27015KT 9999 FEW030 09/M09 Q10252018/12/29 06:00RJFM 290509Z 2906/3012 27015KT 9999
KMI-Y070,金黄 KMI-Y100,柠檬黄 KMI-G170,绿色 KMI-B240,蓝色 KMI-V300,紫色 KMI-M350,品红色 KMI-L010,超黑 KMI-L020,不透明黑 KMI-L030,调色黑
张筱雨105张裸体艺术狼人干练综合在线首页专业的精品资源分享网站,精选国内外优质视频,提供在线狼人干练